Time;durP1;ratioP1;P1;durP2;ratioP2;P2;SDS_P1;SDS_P2;PMS_P1;PMS_P2;Temp;Humidity;BMP_temperature;BMP_pressure;BME280_temperature;BME280_humidity;BME280_pressure;Samples;Min_cycle;Max_cycle;Signal;HPM_P1;HPM_P2
2021/07/19 00:02:04;;;;;;;;;;;;;;;;;;;;;
2021/07/19 00:05:13;;;;;;;6.73;6.03;;;;;;;27.33;49.45;96705.93;126651;1097;62712;-88
2021/07/19 00:08:45;;;;;;;;;;;;;;;;;;;;;
2021/07/19 00:11:54;;;;;;;6.18;5.30;;;;;;;27.30;49.57;96691.10;126766;1096;62591;-88
2021/07/19 00:14:58;;;;;;;;;;;;;;;;;;;;;
2021/07/19 00:18:15;;;;;;;6.00;5.40;;;;;;;27.29;49.93;96705.58;126592;1097;62685;-87
2021/07/19 00:20:56;;;;;;;;;;;;;;;;;;;;;
2021/07/19 00:24:12;;;;;;;7.10;5.37;;;;;;;27.29;49.99;96697.53;126784;1098;62565;-90
2021/07/19 00:27:39;;;;;;;6.30;5.70;;;;;;;27.30;49.79;96698.34;126738;1098;62566;-90
2021/07/19 00:31:21;;;;;;;;;;;;;;;;;;;;;
2021/07/19 00:34:44;;;;;;;6.70;6.00;;;;;;;27.29;49.56;96684.11;126755;1096;62639;-89
2021/07/19 00:37:29;;;;;;;6.83;5.40;;;;;;;27.28;49.60;96677.13;126763;1098;62595;-90
2021/07/19 00:40:40;;;;;;;6.10;5.50;;;;;;;27.28;49.66;96677.13;126660;1098;62629;-89
2021/07/19 00:44:17;;;;;;;;;;;;;;;;;;;;;
2021/07/19 00:47:36;;;;;;;;;;;;;;;;;;;;;
2021/07/19 00:50:58;;;;;;;7.25;5.50;;;;;;;27.25;49.85;96684.81;126897;1097;62612;-88
2021/07/19 00:54:39;;;;;;;6.80;6.10;;;;;;;27.26;50.16;96678.39;126756;1098;62738;-90
2021/07/19 00:58:10;;;;;;;6.37;5.57;;;;;;;27.27;50.17;96682.70;126759;1098;62621;-91
2021/07/19 01:01:37;;;;;;;6.45;5.75;;;;;;;27.27;50.29;96688.06;126666;1098;62582;-91
2021/07/19 01:05:12;;;;;;;6.07;5.57;;;;;;;27.27;50.18;96688.06;126591;1098;62660;-93
2021/07/19 01:08:48;;;;;;;6.33;5.57;;;;;;;27.27;50.05;96702.33;126745;1096;62584;-92
2021/07/19 01:12:16;;;;;;;6.60;6.00;;;;;;;27.29;50.51;96696.72;126838;1098;62624;-90
2021/07/19 01:15:45;;;;;;;6.90;6.00;;;;;;;27.28;50.48;96693.22;126863;1098;62630;-90
2021/07/19 01:19:13;;;;;;;5.87;5.27;;;;;;;27.28;50.29;96693.22;126736;1097;62547;-93
2021/07/19 01:22:42;;;;;;;7.20;6.00;;;;;;;27.28;50.35;96695.09;126870;1097;62632;-90
2021/07/19 01:26:14;;;;;;;5.95;5.25;;;;;;;27.27;50.14;96688.06;126546;1101;62645;-89
2021/07/19 01:28:52;;;;;;;5.77;5.27;;;;;;;27.25;49.91;96690.19;125557;1105;62777;-90
2021/07/19 01:31:33;;;;;;;6.27;5.67;;;;;;;27.23;50.07;96687.75;125621;1105;62703;-89
2021/07/19 01:34:20;;;;;;;5.70;5.20;;;;;;;27.21;49.78;96687.14;125636;1105;63019;-89
2021/07/19 01:37:46;;;;;;;;;;;;;;;;;;;;;
2021/07/19 01:41:36;;;;;;;;;;;;;;;;;;;;;
2021/07/19 01:45:04;;;;;;;;;;;;;;;;;;;;;
2021/07/19 01:48:22;;;;;;;6.45;5.75;;;;;;;27.14;49.85;96686.47;125571;1107;62556;-90
2021/07/19 01:52:05;;;;;;;;;;;;;;;;;;;;;
2021/07/19 01:55:31;;;;;;;;;;;;;;;;;;;;;
2021/07/19 01:59:09;;;;;;;7.75;5.90;;;;;;;27.11;50.05;96681.56;125490;1107;62639;-92
2021/07/19 02:02:50;;;;;;;;;;;;;;;;;;;;;
2021/07/19 02:06:09;;;;;;;7.05;6.35;;;;;;;27.09;50.46;96681.80;126478;1098;62742;-89
2021/07/19 02:09:36;;;;;;;8.33;5.87;;;;;;;27.10;50.47;96677.25;127535;1098;62559;-89
2021/07/19 02:13:07;;;;;;;6.90;6.00;;;;;;;27.11;50.20;96681.56;126689;1098;62565;-89
2021/07/19 02:16:45;;;;;;;;;;;;;;;;;;;;;
2021/07/19 02:20:04;;;;;;;6.70;6.10;;;;;;;27.12;50.37;96684.00;126711;1098;62637;-91
2021/07/19 02:23:36;;;;;;;6.43;5.80;;;;;;;27.12;50.27;96685.87;126884;1097;62627;-91
2021/07/19 02:27:11;;;;;;;;;;;;;;;;;;;;;
2021/07/19 02:30:30;;;;;;;6.63;6.00;;;;;;;27.12;50.32;96688.55;126796;1096;62642;-91
2021/07/19 02:33:59;;;;;;;6.67;6.03;;;;;;;27.12;50.37;96693.91;126759;1096;62616;-91
2021/07/19 02:37:40;;;;;;;;;;;;;;;;;;;;;
2021/07/19 02:41:00;;;;;;;6.73;6.03;;;;;;;27.12;50.39;96688.55;126671;1098;62618;-90
2021/07/19 02:43:53;;;;;;;6.97;6.27;;;;;;;27.12;50.55;96693.91;126685;1098;62655;-90
2021/07/19 02:46:25;;;;;;;6.70;6.07;;;;;;;27.10;50.43;96686.11;126625;1098;62635;-88
2021/07/19 02:48:55;;;;;;;6.80;6.10;;;;;;;27.10;50.46;96687.98;126616;1098;62722;-88
2021/07/19 02:51:38;;;;;;;6.77;5.97;;;;;;;27.10;50.52;96693.34;126795;1098;62585;-91
2021/07/19 02:54:24;;;;;;;5.90;5.40;;;;;;;27.08;50.56;96693.56;126551;1098;62626;-91
2021/07/19 02:56:52;;;;;;;6.70;6.10;;;;;;;27.07;50.52;96691.91;126607;1098;62646;-88
2021/07/19 02:59:26;;;;;;;6.40;5.80;;;;;;;27.05;49.88;96690.52;126538;1098;62638;-89
2021/07/19 03:01:59;;;;;;;6.65;5.50;;;;;;;27.03;50.25;96697.97;126558;1098;62543;-90
2021/07/19 03:05:21;;;;;;;7.27;6.20;;;;;;;27.02;50.39;96699.02;126716;1098;62616;-89
2021/07/19 03:09:29;;;;;;;;;;;;;;;;;;;;;
2021/07/19 03:12:47;;;;;;;5.90;5.30;;;;;;;26.97;50.53;96690.86;126373;1101;62725;-89
2021/07/19 03:16:22;;;;;;;7.50;6.00;;;;;;;26.98;50.16;96697.84;126541;1099;62658;-88
2021/07/19 03:19:39;;;;;;;5.85;5.25;;;;;;;26.97;50.16;96690.86;126577;1101;62799;-90
2021/07/19 03:23:07;;;;;;;6.80;6.10;;;;;;;26.97;50.36;96694.35;126454;1101;62674;-90
2021/07/19 03:26:34;;;;;;;6.13;5.50;;;;;;;26.99;50.26;96696.80;126666;1101;62625;-89
2021/07/19 03:29:59;;;;;;;;;;;;;;;;;;;;;
2021/07/19 03:36:39;;;;;;;6.33;5.50;;;;;;;27.02;50.08;96704.38;126477;1101;62711;-90
2021/07/19 03:39:45;;;;;;;6.30;5.70;;;;;;;27.04;50.35;96707.64;126487;1101;62693;-89
2021/07/19 03:42:18;;;;;;;6.67;6.07;;;;;;;27.06;50.25;96716.28;126433;1100;62685;-89
2021/07/19 03:45:59;;;;;;;6.33;5.73;;;;;;;27.06;50.29;96710.92;126655;1096;62647;-89
2021/07/19 03:49:09;;;;;;;6.73;5.87;;;;;;;27.08;50.26;96716.85;126570;1096;62570;-91
2021/07/19 03:52:21;;;;;;;6.17;5.47;;;;;;;27.09;50.34;96719.35;126572;1098;62642;-91
2021/07/19 03:56:00;;;;;;;;;;;;;;;;;;;;;
2021/07/19 03:58:48;;;;;;;7.63;5.73;;;;;;;27.16;50.16;96728.09;126715;1098;62658;-90
2021/07/19 04:02:06;;;;;;;;;;;;;;;;;;;;;
2021/07/19 04:08:34;;;;;;;6.20;5.53;;;;;;;27.22;49.93;96720.97;126832;1098;62989;-89
2021/07/19 04:12:10;;;;;;;6.40;5.80;;;;;;;27.25;50.15;96731.23;126775;1096;62697;-89
2021/07/19 04:15:30;;;;;;;;;;;;;;;;;;;;;
2021/07/19 04:19:04;;;;;;;7.05;6.05;;;;;;;27.32;50.03;96736.50;126749;1098;63013;-93
2021/07/19 04:23:15;;;;;;;6.40;5.67;;;;;;;27.32;49.89;96725.77;127140;1097;62595;-96
2021/07/19 04:27:14;;;;;;;;;;;;;;;;;;;;;
2021/07/19 04:30:59;;;;;;;;;;;;;;;;;;;;;
2021/07/19 04:34:55;;;;;;;;;;;;;;;;;;;;;
2021/07/19 04:38:14;;;;;;;6.70;5.85;;;;;;;27.35;49.52;96733.33;126309;1104;62645;-93
2021/07/19 04:41:45;;;;;;;6.60;5.97;;;;;;;27.37;49.64;96744.66;126353;1104;62713;-93
2021/07/19 04:45:29;;;;;;;;;;;;;;;;;;;;;
2021/07/19 04:53:06;;;;;;;;;;;;;;;;;;;;;
2021/07/19 04:56:35;;;;;;;6.87;5.60;;;;;;;27.39;49.04;96751.41;126359;1104;62645;-93
2021/07/19 05:00:30;;;;;;;;;;;;;;;;;;;;;
2021/07/19 05:04:05;;;;;;;5.13;4.60;;;;;;;27.41;48.40;96754.70;126596;1101;62642;-95
2021/07/19 05:08:02;;;;;;;;;;;;;;;;;;;;;
2021/07/19 05:11:44;;;;;;;;;;;;;;;;;;;;;
2021/07/19 05:15:08;;;;;;;5.03;4.60;;;;;;;27.36;48.15;96765.31;126786;1101;62664;-93
2021/07/19 05:19:01;;;;;;;;;;;;;;;;;;;;;
2021/07/19 05:23:23;;;;;;;;;;;;;;;;;;;;;
2021/07/19 05:34:46;;;;;;;;;;;;;;;;;;;;;
2021/07/19 05:42:04;;;;;;;5.63;5.03;;;;;;;27.46;47.75;96777.34;126850;1099;62643;-92
2021/07/19 05:45:45;;;;;;;;;;;;;;;;;;;;;
2021/07/19 05:49:10;;;;;;;5.80;5.10;;;;;;;27.52;47.07;96779.08;126692;1101;62706;-91
2021/07/19 05:53:17;;;;;;;;;;;;;;;;;;;;;
2021/07/19 06:00:36;;;;;;;6.17;5.57;;;;;;;27.57;47.03;96788.05;126666;1101;62634;-93
2021/07/19 06:04:23;;;;;;;6.10;5.50;;;;;;;27.60;47.08;96798.33;126667;1100;62677;-92
2021/07/19 06:11:49;;;;;;;6.73;5.83;;;;;;;27.62;46.76;96798.90;126432;1101;62777;-92
2021/07/19 06:16:19;;;;;;;;;;;;;;;;;;;;;
2021/07/19 06:19:07;;;;;;;;;;;;;;;;;;;;;
2021/07/19 06:23:04;;;;;;;;;;;;;;;;;;;;;
2021/07/19 06:26:43;;;;;;;;;;;;;;;;;;;;;
2021/07/19 06:34:21;;;;;;;;;;;;;;;;;;;;;
2021/07/19 06:41:12;;;;;;;6.60;5.90;;;;;;;27.80;46.79;96813.28;127295;1098;62745;-93
2021/07/19 06:44:52;;;;;;;;;;;;;;;;;;;;;
2021/07/19 06:48:22;;;;;;;;;;;;;;;;;;;;;
2021/07/19 06:51:50;;;;;;;;;;;;;;;;;;;;;
2021/07/19 06:55:18;;;;;;;9.28;6.00;;;;;;;28.04;47.05;96819.42;127212;1098;62651;-93
2021/07/19 06:58:41;;;;;;;10.50;6.73;;;;;;;28.09;47.61;96822.22;126933;1096;62815;-96
2021/07/19 07:17:00;;;;;;;;;;;;;;;;;;;;;
2021/07/19 07:25:01;;;;;;;;;;;;;;;;;;;;;
2021/07/19 07:27:51;;;;;;;;;;;;;;;;;;;;;
2021/07/19 07:30:56;;;;;;;;;;;;;;;;;;;;;
2021/07/19 07:36:09;;;;;;;7.70;6.40;;;;;;;28.65;47.46;96820.66;128998;1089;62123;-93
2021/07/19 07:39:01;;;;;;;;;;;;;;;;;;;;;
2021/07/19 07:42:01;;;;;;;7.40;6.17;;;;;;;28.69;47.39;96819.13;129157;1099;60878;-92
2021/07/19 07:44:48;;;;;;;8.47;6.93;;;;;;;28.72;47.57;96823.22;128976;1099;60908;-92
2021/07/19 07:48:15;;;;;;;7.00;6.30;;;;;;;28.73;47.25;96812.21;129178;1099;60696;-92
2021/07/19 07:51:00;;;;;;;7.00;6.30;;;;;;;28.76;47.33;96811.73;129251;1099;62054;-90
2021/07/19 07:53:45;;;;;;;6.60;5.93;;;;;;;28.80;47.17;96807.52;129117;1099;61106;-93
2021/07/19 07:56:33;;;;;;;6.90;6.20;;;;;;;28.83;47.39;96809.70;129122;1099;60779;-91
2021/07/19 07:59:09;;;;;;;7.95;6.60;;;;;;;28.85;47.23;96812.98;129180;1099;60808;-92
2021/07/19 08:01:58;;;;;;;8.00;6.70;;;;;;;28.89;47.30;96811.44;129261;1099;60587;-91
2021/07/19 08:05:08;;;;;;;;;;;;;;;;;;;;;
2021/07/19 08:08:08;;;;;;;8.03;7.17;;;;;;;28.94;47.13;96808.02;129154;1099;60726;-91
2021/07/19 08:10:47;;;;;;;7.30;6.60;;;;;;;28.96;47.10;96811.30;129073;1100;60881;-91
2021/07/19 08:13:53;;;;;;;7.95;6.40;;;;;;;28.97;47.09;96804.86;129153;1100;60736;-91
2021/07/19 08:16:34;;;;;;;8.15;7.10;;;;;;;28.99;47.16;96799.26;129176;1099;60737;-91
2021/07/19 08:19:42;;;;;;;;;;;;;;;;;;;;;
2021/07/19 08:22:31;;;;;;;8.00;6.93;;;;;;;29.03;47.02;96793.14;129134;1100;60608;-91
2021/07/19 08:25:29;;;;;;;;;;;;;;;;;;;;;
2021/07/19 08:29:02;;;;;;;;;;;;;;;;;;;;;
2021/07/19 08:31:49;;;;;;;7.10;6.45;;;;;;;29.11;46.89;96786.52;128858;1100;60671;-91
2021/07/19 08:34:45;;;;;;;7.20;6.57;;;;;;;29.14;46.77;96786.05;129163;1099;61305;-91
2021/07/19 08:38:12;;;;;;;;;;;;;;;;;;;;;
2021/07/19 08:41:07;;;;;;;;;;;;;;;;;;;;;
2021/07/19 08:43:53;;;;;;;7.95;6.90;;;;;;;29.23;46.65;96783.77;128877;1100;61077;-92
2021/07/19 08:46:48;;;;;;;7.13;6.40;;;;;;;29.27;46.73;96790.29;128922;1099;60655;-91
2021/07/19 08:49:48;;;;;;;7.20;6.50;;;;;;;29.29;46.47;96780.89;128777;1103;61101;-91
2021/07/19 08:53:23;;;;;;;7.43;6.70;;;;;;;29.33;46.68;96771.27;128743;1104;60909;-91
2021/07/19 08:57:00;;;;;;;;;;;;;;;;;;;;;
2021/07/19 08:59:37;;;;;;;7.50;6.75;;;;;;;29.40;46.44;96774.62;129098;1100;60774;-92
2021/07/19 09:28:15;;;;;;;7.73;7.03;;;;;;;30.30;45.35;96772.60;129183;1092;62041;-92
2021/07/19 09:31:11;;;;;;;7.73;7.03;;;;;;;30.52;45.23;96782.55;128834;1092;61548;-92
2021/07/19 09:35:08;;;;;;;9.00;7.23;;;;;;;30.70;44.61;96779.50;128716;1092;62035;-91
2021/07/19 09:38:19;;;;;;;10.20;7.70;;;;;;;30.93;44.48;96775.70;129037;1100;60883;-93
2021/07/19 09:53:00;;;;;;;;;;;;;;;;;;;;;
2021/07/19 10:04:42;;;;;;;;;;;;;;;;;;;;;
2021/07/19 10:13:19;;;;;;;;;;;;;;;;;;;;;
2021/07/19 10:16:00;;;;;;;8.20;7.40;;;;;;;30.60;43.93;96769.43;128141;1098;62550;-95
2021/07/19 10:21:49;;;;;;;8.60;7.70;;;;;;;30.38;44.13;96774.86;127476;1098;62635;-94
2021/07/19 10:24:55;;;;;;;8.50;7.70;;;;;;;30.30;44.54;96775.30;128102;1098;62643;-94
2021/07/19 10:27:52;;;;;;;8.40;7.60;;;;;;;30.22;44.65;96772.23;127600;1095;63057;-95
2021/07/19 10:30:24;;;;;;;9.20;8.30;;;;;;;30.16;44.88;96771.36;127944;1095;62595;-94
2021/07/19 10:33:36;;;;;;;9.17;8.27;;;;;;;30.11;44.86;96769.39;127400;1098;62653;-96
2021/07/19 10:36:11;;;;;;;9.57;7.93;;;;;;;30.05;45.02;96767.71;127788;1097;62585;-95
2021/07/19 10:38:49;;;;;;;8.83;8.03;;;;;;;30.03;44.94;96766.31;127559;1098;62588;-94
2021/07/19 10:42:15;;;;;;;;;;;;;;;;;;;;;
2021/07/19 10:45:07;;;;;;;8.77;7.93;;;;;;;29.94;44.89;96753.28;128607;1097;62060;-92
2021/07/19 10:47:52;;;;;;;9.03;8.13;;;;;;;29.93;45.33;96751.66;128466;1098;61324;-94
2021/07/19 10:50:44;;;;;;;8.40;7.67;;;;;;;29.91;45.17;96753.80;127300;1101;62841;-95
2021/07/19 10:53:33;;;;;;;8.77;7.87;;;;;;;29.89;45.31;96752.41;127006;1098;62629;-95
2021/07/19 10:56:13;;;;;;;8.70;7.80;;;;;;;29.87;45.07;96743.78;127216;1098;62599;-96
2021/07/19 10:59:01;;;;;;;8.73;7.93;;;;;;;29.85;45.09;96741.31;127402;1095;62562;-95
2021/07/19 11:07:13;;;;;;;10.35;7.60;;;;;;;29.85;44.98;96744.01;128154;1092;63213;-93
2021/07/19 11:13:06;;;;;;;8.38;7.58;;;;;;;30.57;43.50;96740.27;128486;1092;62827;-95
2021/07/19 11:15:58;;;;;;;8.77;7.87;;;;;;;30.88;42.85;96743.28;126738;1092;62727;-93
2021/07/19 12:35:27;;;;;;;;;;;;;;;;;;;;;
2021/07/19 12:38:17;;;;;;;10.80;9.05;;;;;;;30.83;42.38;96783.67;128846;1101;60980;-90
2021/07/19 12:41:22;;;;;;;;;;;;;;;;;;;;;
2021/07/19 12:44:03;;;;;;;10.83;8.27;;;;;;;30.57;42.18;96774.52;127002;1098;62572;-96
2021/07/19 12:46:30;;;;;;;9.53;8.37;;;;;;;30.47;42.17;96767.13;127662;1098;62620;-93
2021/07/19 12:48:58;;;;;;;9.20;7.90;;;;;;;30.35;42.15;96748.39;128141;1098;62695;-94
2021/07/19 12:51:29;;;;;;;10.25;8.45;;;;;;;30.29;42.15;96752.11;128703;1092;62019;-94
2021/07/19 12:53:58;;;;;;;9.07;7.90;;;;;;;30.23;42.02;96760.38;127098;1095;62603;-89
2021/07/19 12:56:31;;;;;;;9.37;7.43;;;;;;;30.15;42.02;96758.96;127657;1095;62617;-91
2021/07/19 13:01:39;;;;;;;8.50;7.60;;;;;;;29.99;41.85;96767.88;127655;1089;62674;-93
2021/07/19 13:04:11;;;;;;;8.15;7.15;;;;;;;29.89;41.64;96765.88;127267;1095;62668;-95
2021/07/19 13:06:39;;;;;;;8.60;6.60;;;;;;;29.80;41.52;96761.98;128347;1092;62598;-95
2021/07/19 13:09:12;;;;;;;7.73;6.20;;;;;;;29.71;41.20;96780.45;127222;1095;62694;-91
2021/07/19 13:11:43;;;;;;;7.80;6.50;;;;;;;29.62;40.62;96773.86;127297;1095;62711;-91
2021/07/19 13:20:03;;;;;;;8.10;6.27;;;;;;;29.54;39.98;96787.74;127880;1092;62679;-92
2021/07/19 13:22:35;;;;;;;5.60;4.97;;;;;;;29.50;39.56;96783.91;127346;1095;62559;-95
2021/07/19 13:25:19;;;;;;;5.93;5.03;;;;;;;29.43;39.22;96773.30;127464;1095;62556;-96
2021/07/19 13:27:46;;;;;;;5.73;4.87;;;;;;;29.40;39.13;96769.23;127510;1095;62642;-94
2021/07/19 13:30:18;;;;;;;8.55;5.80;;;;;;;29.38;39.64;96763.27;127399;1093;62424;-92
2021/07/19 13:32:47;;;;;;;6.47;5.77;;;;;;;29.37;39.64;96764.34;127228;1094;62604;-89
2021/07/19 13:35:15;;;;;;;7.17;5.73;;;;;;;29.38;39.70;96765.15;127274;1095;62661;-90
2021/07/19 13:37:49;;;;;;;6.80;6.13;;;;;;;29.34;40.18;96764.81;127245;1095;62578;-90
2021/07/19 13:40:24;;;;;;;8.40;6.40;;;;;;;29.27;41.05;96758.80;127538;1095;62676;-90
2021/07/19 13:43:00;;;;;;;7.15;6.45;;;;;;;29.16;41.52;96751.63;127316;1095;62684;-89
2021/07/19 13:45:32;;;;;;;7.67;6.87;;;;;;;29.05;42.19;96733.70;127281;1095;62556;-90
2021/07/19 13:47:59;;;;;;;8.40;7.63;;;;;;;28.98;42.60;96733.03;127218;1095;62360;-89
2021/07/19 13:50:29;;;;;;;8.93;8.03;;;;;;;28.85;43.04;96740.36;127333;1095;62719;-92
2021/07/19 13:53:06;;;;;;;9.30;8.25;;;;;;;28.72;43.79;96746.05;127350;1095;62615;-91
2021/07/19 13:55:48;;;;;;;;;;;;;;;;;;;;;
2021/07/19 13:58:21;;;;;;;10.17;8.63;;;;;;;28.54;44.47;96727.45;127569;1095;62594;-91
2021/07/19 14:00:53;;;;;;;9.40;8.40;;;;;;;28.49;44.61;96717.42;127704;1095;62581;-89
2021/07/19 14:03:21;;;;;;;11.43;8.93;;;;;;;28.50;45.10;96720.92;127556;1095;62640;-90
2021/07/19 14:06:15;;;;;;;10.73;9.53;;;;;;;28.53;45.32;96712.38;127140;1095;62602;-92
2021/07/19 14:08:56;;;;;;;10.60;8.90;;;;;;;28.60;45.35;96713.03;127373;1095;61812;-93
2021/07/19 14:11:43;;;;;;;10.60;9.20;;;;;;;28.71;45.47;96717.53;127260;1095;62630;-92
2021/07/19 14:14:12;;;;;;;10.43;9.33;;;;;;;28.83;45.30;96731.70;127623;1095;62473;-90
2021/07/19 14:16:42;;;;;;;10.60;9.37;;;;;;;28.91;45.32;96720.55;127324;1095;62813;-91
2021/07/19 14:19:30;;;;;;;9.48;8.40;;;;;;;28.95;45.36;96723.59;127290;1095;62559;-91
2021/07/19 14:22:15;;;;;;;10.30;9.30;;;;;;;28.95;45.57;96730.83;127245;1095;62613;-92
2021/07/19 14:24:43;;;;;;;10.37;9.27;;;;;;;28.97;45.52;96739.48;127443;1095;62613;-90
2021/07/19 14:27:15;;;;;;;10.73;9.67;;;;;;;28.96;45.70;96735.98;127503;1095;62623;-90
2021/07/19 14:29:45;;;;;;;10.40;9.17;;;;;;;28.94;45.92;96727.33;127636;1095;62559;-90
2021/07/19 14:32:22;;;;;;;;;;;;;;;;;;;;;
2021/07/19 14:34:52;;;;;;;10.50;9.40;;;;;;;28.86;46.03;96725.03;127287;1095;62574;-89
2021/07/19 14:37:19;;;;;;;10.57;8.83;;;;;;;28.80;46.29;96726.83;127546;1095;62194;-91
2021/07/19 14:39:48;;;;;;;;;;;;;;;28.73;46.34;96720.78;127376;1095;62661;-92
2021/07/19 14:42:18;;;;;;;10.57;9.47;;;;;;;28.69;46.38;96722.33;127261;1095;62894;-90
2021/07/19 14:44:49;;;;;;;9.67;8.73;;;;;;;28.59;46.54;96731.03;127307;1095;62597;-91
2021/07/19 14:47:18;;;;;;;10.40;9.40;;;;;;;28.56;46.66;96747.64;128200;1095;61693;-92
2021/07/19 14:49:45;;;;;;;10.37;9.30;;;;;;;28.51;46.94;96760.17;127362;1095;62546;-90
2021/07/19 14:52:13;;;;;;;10.93;9.40;;;;;;;28.44;46.95;96770.28;127411;1095;62669;-90
2021/07/19 14:54:44;;;;;;;10.30;9.30;;;;;;;28.39;47.25;96779.06;127294;1095;62543;-91
2021/07/19 14:57:12;;;;;;;10.10;9.13;;;;;;;28.34;47.43;96781.63;127348;1095;62526;-92
2021/07/19 14:59:41;;;;;;;11.85;9.05;;;;;;;28.29;47.26;96779.66;127318;1095;62598;-92
2021/07/19 15:02:08;;;;;;;10.23;9.13;;;;;;;28.24;47.48;96771.50;127260;1095;62635;-91
2021/07/19 15:04:57;;;;;;;11.30;10.00;;;;;;;28.23;47.74;96783.27;127301;1095;62575;-91
2021/07/19 15:07:26;;;;;;;11.03;9.93;;;;;;;28.23;47.77;96780.59;127290;1095;62694;-91
2021/07/19 15:10:14;;;;;;;10.60;9.17;;;;;;;28.25;47.77;96777.69;127018;1095;62664;-92
2021/07/19 15:12:48;;;;;;;10.10;9.10;;;;;;;28.29;47.75;96779.66;127210;1097;62614;-92
2021/07/19 15:15:26;;;;;;;9.83;8.80;;;;;;;28.38;47.75;96770.19;127310;1095;62613;-91
2021/07/19 15:17:54;;;;;;;10.53;9.33;;;;;;;28.47;47.59;96775.16;127174;1095;62626;-91
2021/07/19 15:20:25;;;;;;;10.50;9.40;;;;;;;28.52;47.42;96767.18;127177;1095;63009;-92
2021/07/19 15:22:59;;;;;;;10.70;9.63;;;;;;;28.56;47.22;96760.27;127155;1095;63041;-91
2021/07/19 15:25:40;;;;;;;10.90;9.80;;;;;;;28.60;47.17;96780.23;127067;1095;62652;-92
2021/07/19 15:28:10;;;;;;;11.53;9.40;;;;;;;28.62;47.30;96794.27;127132;1095;62652;-93
2021/07/19 15:30:39;;;;;;;9.83;8.53;;;;;;;28.63;47.29;96807.47;127032;1095;62671;-91
2021/07/19 15:33:06;;;;;;;9.03;8.13;;;;;;;28.64;47.10;96810.97;126940;1095;62949;-92
2021/07/19 15:35:34;;;;;;;9.47;8.47;;;;;;;28.65;47.25;96820.66;126964;1095;62683;-90
2021/07/19 15:38:10;;;;;;;9.95;8.90;;;;;;;28.65;47.52;96818.78;126978;1098;62632;-92
2021/07/19 15:40:39;;;;;;;9.60;8.30;;;;;;;28.62;47.46;96813.09;126891;1095;62645;-94
2021/07/19 15:43:08;;;;;;;8.50;7.60;;;;;;;28.57;47.43;96818.38;126696;1095;62613;-92
2021/07/19 15:45:36;;;;;;;9.13;8.23;;;;;;;28.50;47.46;96818.50;126806;1095;62674;-92
2021/07/19 15:48:06;;;;;;;9.50;8.57;;;;;;;28.46;47.84;96811.16;126773;1095;62562;-93
2021/07/19 15:50:34;;;;;;;9.90;8.90;;;;;;;28.41;47.54;96817.25;126829;1095;62607;-91
2021/07/19 15:53:01;;;;;;;10.43;8.80;;;;;;;28.38;47.92;96812.34;126819;1095;62578;-91
2021/07/19 15:55:29;;;;;;;9.70;8.70;;;;;;;28.35;47.83;96805.59;126781;1098;62673;-90
2021/07/19 15:57:56;;;;;;;11.90;9.23;;;;;;;28.32;47.99;96787.22;126766;1095;62646;-92
2021/07/19 16:00:24;;;;;;;10.13;9.13;;;;;;;28.30;47.99;96775.91;126729;1095;62635;-91
2021/07/19 16:11:32;;;;;;;10.70;9.15;;;;;;;28.24;48.56;96782.25;127190;1095;62629;-87
2021/07/19 16:13:59;;;;;;;10.40;8.80;;;;;;;28.22;48.57;96789.72;126658;1098;62667;-88
2021/07/19 16:16:26;;;;;;;10.80;9.70;;;;;;;28.20;48.60;96781.09;126866;1098;62628;-88
2021/07/19 16:18:54;;;;;;;10.30;9.10;;;;;;;28.17;48.39;96785.05;126907;1095;62722;-88
2021/07/19 16:21:21;;;;;;;10.03;9.03;;;;;;;28.14;48.64;96774.77;126835;1095;62727;-89
2021/07/19 16:23:49;;;;;;;10.37;9.23;;;;;;;28.12;48.58;96784.14;127102;1098;62585;-88
2021/07/19 16:26:27;;;;;;;11.77;9.47;;;;;;;28.11;48.64;96779.83;126974;1096;62295;-90
2021/07/19 16:28:56;;;;;;;9.45;8.55;;;;;;;28.10;48.71;96770.11;126748;1095;62681;-90
2021/07/19 16:31:25;;;;;;;10.37;8.70;;;;;;;28.09;48.89;96765.80;126723;1098;62623;-88
2021/07/19 16:33:54;;;;;;;10.60;9.50;;;;;;;28.06;49.11;96768.98;126773;1095;62661;-89
2021/07/19 16:36:26;;;;;;;10.50;9.40;;;;;;;28.04;49.24;96771.89;126717;1095;62770;-88
2021/07/19 16:39:02;;;;;;;9.67;8.67;;;;;;;28.02;49.04;96781.25;126715;1095;62609;-88
2021/07/19 16:41:36;;;;;;;11.70;8.30;;;;;;;27.98;49.30;96804.27;126786;1098;62616;-88
2021/07/19 16:44:04;;;;;;;9.67;8.40;;;;;;;27.93;49.42;96804.16;126768;1095;62649;-87
2021/07/19 16:46:35;;;;;;;9.77;8.73;;;;;;;27.88;49.33;96799.50;126805;1095;62649;-88
2021/07/19 16:49:03;;;;;;;9.80;8.80;;;;;;;27.83;49.48;96802.89;126839;1095;62777;-88
2021/07/19 16:51:30;;;;;;;9.47;8.57;;;;;;;27.79;49.44;96806.28;126687;1098;62652;-87
2021/07/19 16:53:58;;;;;;;10.85;8.85;;;;;;;27.75;49.84;96810.48;126813;1095;62571;-89
2021/07/19 16:56:25;;;;;;;10.50;8.30;;;;;;;27.71;49.80;96820.84;126750;1095;62600;-89
2021/07/19 16:58:52;;;;;;;9.20;7.90;;;;;;;27.65;49.75;96832.53;127304;1095;62732;-91
2021/07/19 17:01:19;;;;;;;9.13;7.97;;;;;;;27.57;49.82;96846.29;126935;1095;62726;-89
2021/07/19 17:03:47;;;;;;;8.60;7.73;;;;;;;27.47;50.00;96856.80;126775;1095;62654;-89
2021/07/19 17:06:14;;;;;;;9.70;8.70;;;;;;;27.38;50.33;96865.18;126707;1095;62636;-90
2021/07/19 17:08:42;;;;;;;9.25;8.30;;;;;;;27.31;50.46;96861.77;126829;1095;62604;-87
2021/07/19 17:11:09;;;;;;;10.40;9.37;;;;;;;27.28;50.20;96866.80;126812;1098;62548;-89
2021/07/19 17:13:36;;;;;;;10.33;8.70;;;;;;;27.25;50.58;96865.38;126758;1098;62631;-89
2021/07/19 17:16:04;;;;;;;9.13;8.23;;;;;;;27.23;50.63;96856.77;126879;1098;62588;-88
2021/07/19 17:18:32;;;;;;;9.15;8.20;;;;;;;27.21;50.70;96850.80;126841;1095;62641;-89
2021/07/19 17:20:59;;;;;;;10.50;8.83;;;;;;;27.19;50.91;96849.41;126808;1095;62568;-88
2021/07/19 17:23:27;;;;;;;9.35;8.45;;;;;;;27.17;51.07;96846.93;126818;1098;62575;-88
2021/07/19 17:25:54;;;;;;;10.10;8.80;;;;;;;27.13;51.04;96838.55;126903;1098;62693;-88
2021/07/19 17:28:22;;;;;;;9.57;8.57;;;;;;;27.09;51.05;96837.38;126897;1095;62613;-89
2021/07/19 17:30:50;;;;;;;10.33;8.70;;;;;;;27.03;51.37;96854.33;127033;1095;62580;-90
2021/07/19 17:33:22;;;;;;;9.70;8.70;;;;;;;26.98;51.62;96854.20;126968;1095;62569;-92
2021/07/19 17:35:50;;;;;;;9.50;8.47;;;;;;;26.94;51.58;96858.38;126880;1095;62551;-90
2021/07/19 17:38:28;;;;;;;11.57;8.63;;;;;;;26.88;51.69;96852.08;127032;1095;62680;-91
2021/07/19 17:41:01;;;;;;;10.17;9.10;;;;;;;26.86;51.67;96848.01;127102;1095;62658;-91
2021/07/19 17:43:38;;;;;;;10.47;9.37;;;;;;;26.82;51.78;96834.23;126772;1095;62625;-92
2021/07/19 17:46:10;;;;;;;;;;;;;;;26.81;52.17;96835.28;127126;1095;62649;-91
2021/07/19 17:48:42;;;;;;;11.37;9.30;;;;;;;26.83;52.03;96827.00;127389;1095;62629;-91
2021/07/19 17:51:11;;;;;;;10.13;9.13;;;;;;;26.81;52.09;96813.84;127294;1095;62995;-90
2021/07/19 17:53:43;;;;;;;10.17;8.90;;;;;;;26.81;52.02;96816.52;127149;1095;62575;-89
2021/07/19 17:56:10;;;;;;;10.87;9.47;;;;;;;26.80;52.41;96819.41;127086;1098;63001;-89
2021/07/19 17:58:39;;;;;;;10.67;9.57;;;;;;;26.79;52.20;96823.14;127252;1098;62631;-89
2021/07/19 18:01:06;;;;;;;11.07;9.97;;;;;;;26.78;52.56;96827.69;127083;1098;63002;-89
2021/07/19 18:03:36;;;;;;;10.20;9.20;;;;;;;26.77;52.36;96826.06;127148;1095;62527;-89
2021/07/19 18:06:06;;;;;;;11.00;9.90;;;;;;;26.74;52.60;96817.65;127155;1095;62617;-89
2021/07/19 18:08:38;;;;;;;10.45;9.35;;;;;;;26.68;52.87;96813.21;127275;1095;62608;-90
2021/07/19 18:11:10;;;;;;;9.80;8.80;;;;;;;26.61;53.38;96807.92;127363;1095;62620;-91
2021/07/19 18:13:42;;;;;;;10.30;9.27;;;;;;;26.54;53.37;96810.71;127305;1095;62696;-92
2021/07/19 18:16:12;;;;;;;11.67;9.67;;;;;;;26.50;53.42;96811.39;127460;1095;62585;-95
2021/07/19 18:18:40;;;;;;;9.87;8.87;;;;;;;26.49;53.49;96820.48;127417;1095;62620;-93
2021/07/19 18:21:10;;;;;;;10.33;9.10;;;;;;;26.48;53.61;96821.50;127436;1095;62543;-92
2021/07/19 18:23:43;;;;;;;10.80;9.27;;;;;;;26.48;53.51;96824.18;127395;1095;62572;-91
2021/07/19 18:30:25;;;;;;;11.00;9.43;;;;;;;26.49;53.51;96832.02;127281;1095;62586;-92
2021/07/19 18:31:50;;;;;;;12.50;10.40;;;;;;;26.52;53.54;96823.50;127383;1095;62683;-92
2021/07/19 18:34:18;;;;;;;10.50;9.40;;;;;;;26.51;53.65;96813.84;127277;1095;62572;-92
2021/07/19 18:36:49;;;;;;;10.93;9.00;;;;;;;26.52;53.91;96811.97;127284;1098;62616;-93
2021/07/19 18:39:17;;;;;;;11.63;10.37;;;;;;;26.51;53.49;96823.73;127278;1095;62658;-91
2021/07/19 18:41:47;;;;;;;10.97;9.87;;;;;;;26.50;53.75;96839.00;127217;1095;62694;-92
2021/07/19 18:44:15;;;;;;;10.17;9.17;;;;;;;26.49;53.72;96839.23;127208;1095;62609;-92
2021/07/19 18:46:45;;;;;;;12.00;10.80;;;;;;;26.46;53.65;96834.32;127165;1095;62917;-94
2021/07/19 18:49:13;;;;;;;12.80;10.23;;;;;;;26.46;54.01;96835.14;127276;1095;62631;-93